sensor_id;sensor_type;location;lat;lon;timestamp;P1;durP1;ratioP1;P2;durP2;ratioP2
9934;SDS011;5006;41.828;23.478;2023-04-03T00:00:19;1.90;;;0.90;;
9934;SDS011;5006;41.828;23.478;2023-04-03T00:01:24;2.00;;;1.00;;
9934;SDS011;5006;41.828;23.478;2023-04-03T00:02:30;1.40;;;1.00;;
9934;SDS011;5006;41.828;23.478;2023-04-03T00:03:35;1.52;;;1.27;;
9934;SDS011;5006;41.828;23.478;2023-04-03T00:04:40;2.33;;;1.10;;
9934;SDS011;5006;41.828;23.478;2023-04-03T00:05:45;1.73;;;1.10;;
9934;SDS011;5006;41.828;23.478;2023-04-03T00:06:51;1.42;;;1.00;;
9934;SDS011;5006;41.828;23.478;2023-04-03T00:07:56;1.08;;;0.90;;
9934;SDS011;5006;41.828;23.478;2023-04-03T00:09:02;1.45;;;1.15;;
9934;SDS011;5006;41.828;23.478;2023-04-03T00:10:07;1.52;;;1.00;;
9934;SDS011;5006;41.828;23.478;2023-04-03T00:11:15;1.10;;;1.00;;
9934;SDS011;5006;41.828;23.478;2023-04-03T00:12:22;1.67;;;1.10;;
9934;SDS011;5006;41.828;23.478;2023-04-03T00:13:27;1.30;;;1.00;;
9934;SDS011;5006;41.828;23.478;2023-04-03T00:14:32;2.30;;;1.13;;
9934;SDS011;5006;41.828;23.478;2023-04-03T00:15:37;1.50;;;1.40;;
9934;SDS011;5006;41.828;23.478;2023-04-03T00:16:43;1.50;;;1.40;;
9934;SDS011;5006;41.828;23.478;2023-04-03T00:17:48;1.58;;;1.30;;
9934;SDS011;5006;41.828;23.478;2023-04-03T00:18:54;1.90;;;1.17;;
9934;SDS011;5006;41.828;23.478;2023-04-03T00:19:58;1.92;;;1.42;;
9934;SDS011;5006;41.828;23.478;2023-04-03T00:21:04;1.60;;;1.30;;
9934;SDS011;5006;41.828;23.478;2023-04-03T00:22:10;1.63;;;1.17;;
9934;SDS011;5006;41.828;23.478;2023-04-03T00:23:15;1.63;;;1.13;;
9934;SDS011;5006;41.828;23.478;2023-04-03T00:24:20;2.08;;;1.13;;
9934;SDS011;5006;41.828;23.478;2023-04-03T00:25:26;1.27;;;1.17;;
9934;SDS011;5006;41.828;23.478;2023-04-03T00:26:32;1.83;;;1.25;;
9934;SDS011;5006;41.828;23.478;2023-04-03T00:27:38;2.03;;;0.93;;
9934;SDS011;5006;41.828;23.478;2023-04-03T00:28:43;2.30;;;1.00;;
9934;SDS011;5006;41.828;23.478;2023-04-03T00:29:49;1.55;;;1.10;;
9934;SDS011;5006;41.828;23.478;2023-04-03T00:30:54;3.00;;;1.30;;
9934;SDS011;5006;41.828;23.478;2023-04-03T00:32:00;2.03;;;1.30;;
9934;SDS011;5006;41.828;23.478;2023-04-03T00:33:05;3.45;;;1.52;;
9934;SDS011;5006;41.828;23.478;2023-04-03T00:34:10;1.95;;;1.58;;
9934;SDS011;5006;41.828;23.478;2023-04-03T00:35:15;1.65;;;1.30;;
9934;SDS011;5006;41.828;23.478;2023-04-03T00:36:21;1.25;;;1.15;;
9934;SDS011;5006;41.828;23.478;2023-04-03T00:37:26;3.50;;;1.50;;
9934;SDS011;5006;41.828;23.478;2023-04-03T00:38:33;1.70;;;1.20;;
9934;SDS011;5006;41.828;23.478;2023-04-03T00:39:37;2.33;;;1.30;;
9934;SDS011;5006;41.828;23.478;2023-04-03T00:40:44;1.80;;;1.35;;
9934;SDS011;5006;41.828;23.478;2023-04-03T00:41:52;1.33;;;1.23;;
9934;SDS011;5006;41.828;23.478;2023-04-03T00:42:58;1.33;;;1.13;;
9934;SDS011;5006;41.828;23.478;2023-04-03T00:44:18;1.85;;;1.02;;
9934;SDS011;5006;41.828;23.478;2023-04-03T00:45:31;1.92;;;1.13;;
9934;SDS011;5006;41.828;23.478;2023-04-03T00:46:40;1.42;;;1.10;;
9934;SDS011;5006;41.828;23.478;2023-04-03T00:47:46;1.92;;;1.30;;
9934;SDS011;5006;41.828;23.478;2023-04-03T00:48:51;1.42;;;1.23;;
9934;SDS011;5006;41.828;23.478;2023-04-03T00:49:56;1.55;;;1.23;;
9934;SDS011;5006;41.828;23.478;2023-04-03T00:51:02;2.17;;;1.30;;
9934;SDS011;5006;41.828;23.478;2023-04-03T00:52:11;1.23;;;1.02;;
9934;SDS011;5006;41.828;23.478;2023-04-03T00:53:21;1.10;;;1.00;;
9934;SDS011;5006;41.828;23.478;2023-04-03T00:54:31;1.20;;;1.10;;
9934;SDS011;5006;41.828;23.478;2023-04-03T00:55:36;1.20;;;1.10;;
9934;SDS011;5006;41.828;23.478;2023-04-03T00:56:43;1.30;;;1.08;;
9934;SDS011;5006;41.828;23.478;2023-04-03T00:57:50;1.98;;;1.40;;
9934;SDS011;5006;41.828;23.478;2023-04-03T00:58:58;1.80;;;1.23;;
9934;SDS011;5006;41.828;23.478;2023-04-03T01:00:07;1.48;;;1.20;;
9934;SDS011;5006;41.828;23.478;2023-04-03T01:01:17;2.40;;;1.60;;
9934;SDS011;5006;41.828;23.478;2023-04-03T01:02:25;3.00;;;2.20;;
9934;SDS011;5006;41.828;23.478;2023-04-03T01:03:31;1.83;;;1.60;;
9934;SDS011;5006;41.828;23.478;2023-04-03T01:04:39;1.60;;;1.33;;
9934;SDS011;5006;41.828;23.478;2023-04-03T01:05:46;1.50;;;1.15;;
9934;SDS011;5006;41.828;23.478;2023-04-03T01:06:51;1.60;;;1.30;;
9934;SDS011;5006;41.828;23.478;2023-04-03T01:07:57;1.80;;;1.30;;
9934;SDS011;5006;41.828;23.478;2023-04-03T01:09:03;1.55;;;1.45;;
9934;SDS011;5006;41.828;23.478;2023-04-03T01:10:10;3.05;;;1.67;;
9934;SDS011;5006;41.828;23.478;2023-04-03T01:11:18;2.78;;;1.30;;
9934;SDS011;5006;41.828;23.478;2023-04-03T01:12:25;2.10;;;1.50;;
9934;SDS011;5006;41.828;23.478;2023-04-03T01:13:33;2.28;;;1.85;;
9934;SDS011;5006;41.828;23.478;2023-04-03T01:14:40;2.05;;;1.40;;
9934;SDS011;5006;41.828;23.478;2023-04-03T01:15:45;2.55;;;1.70;;
9934;SDS011;5006;41.828;23.478;2023-04-03T01:16:52;1.40;;;1.30;;
9934;SDS011;5006;41.828;23.478;2023-04-03T01:17:58;2.25;;;1.30;;
9934;SDS011;5006;41.828;23.478;2023-04-03T01:19:05;2.78;;;1.40;;
9934;SDS011;5006;41.828;23.478;2023-04-03T01:20:24;3.75;;;1.60;;
9934;SDS011;5006;41.828;23.478;2023-04-03T01:22:01;2.22;;;1.52;;
9934;SDS011;5006;41.828;23.478;2023-04-03T01:23:18;2.03;;;1.38;;
9934;SDS011;5006;41.828;23.478;2023-04-03T01:24:31;2.58;;;1.50;;
9934;SDS011;5006;41.828;23.478;2023-04-03T01:25:41;1.65;;;1.20;;
9934;SDS011;5006;41.828;23.478;2023-04-03T01:26:48;2.25;;;1.20;;
9934;SDS011;5006;41.828;23.478;2023-04-03T01:27:54;2.10;;;1.10;;
9934;SDS011;5006;41.828;23.478;2023-04-03T01:29:00;1.73;;;1.10;;
9934;SDS011;5006;41.828;23.478;2023-04-03T01:30:07;1.77;;;1.20;;
9934;SDS011;5006;41.828;23.478;2023-04-03T01:31:15;1.45;;;0.90;;
9934;SDS011;5006;41.828;23.478;2023-04-03T01:32:28;1.67;;;1.15;;
9934;SDS011;5006;41.828;23.478;2023-04-03T01:33:34;1.38;;;1.27;;
9934;SDS011;5006;41.828;23.478;2023-04-03T01:34:39;1.80;;;1.30;;
9934;SDS011;5006;41.828;23.478;2023-04-03T01:35:45;2.72;;;1.50;;
9934;SDS011;5006;41.828;23.478;2023-04-03T01:36:50;1.50;;;1.40;;
9934;SDS011;5006;41.828;23.478;2023-04-03T01:37:57;1.48;;;1.38;;
9934;SDS011;5006;41.828;23.478;2023-04-03T01:39:02;2.63;;;1.70;;
9934;SDS011;5006;41.828;23.478;2023-04-03T01:40:08;2.10;;;1.60;;
9934;SDS011;5006;41.828;23.478;2023-04-03T01:41:13;1.52;;;1.27;;
9934;SDS011;5006;41.828;23.478;2023-04-03T01:42:20;2.92;;;1.70;;
9934;SDS011;5006;41.828;23.478;2023-04-03T01:43:26;1.65;;;1.55;;
9934;SDS011;5006;41.828;23.478;2023-04-03T01:44:30;1.85;;;1.42;;
9934;SDS011;5006;41.828;23.478;2023-04-03T01:45:36;3.17;;;1.90;;
9934;SDS011;5006;41.828;23.478;2023-04-03T01:46:41;2.90;;;1.65;;
9934;SDS011;5006;41.828;23.478;2023-04-03T01:47:48;1.80;;;1.50;;
9934;SDS011;5006;41.828;23.478;2023-04-03T01:48:53;1.67;;;1.50;;
9934;SDS011;5006;41.828;23.478;2023-04-03T01:49:59;1.40;;;1.30;;
9934;SDS011;5006;41.828;23.478;2023-04-03T01:51:04;1.92;;;1.27;;
9934;SDS011;5006;41.828;23.478;2023-04-03T01:52:10;1.67;;;1.20;;
9934;SDS011;5006;41.828;23.478;2023-04-03T01:53:15;2.33;;;1.30;;
9934;SDS011;5006;41.828;23.478;2023-04-03T01:54:20;1.73;;;1.08;;
9934;SDS011;5006;41.828;23.478;2023-04-03T01:55:25;1.85;;;1.20;;
9934;SDS011;5006;41.828;23.478;2023-04-03T01:56:31;2.25;;;1.30;;
9934;SDS011;5006;41.828;23.478;2023-04-03T01:57:35;1.98;;;1.30;;
9934;SDS011;5006;41.828;23.478;2023-04-03T01:58:41;1.83;;;1.00;;
9934;SDS011;5006;41.828;23.478;2023-04-03T01:59:46;3.25;;;1.40;;
9934;SDS011;5006;41.828;23.478;2023-04-03T02:00:52;4.18;;;1.30;;
9934;SDS011;5006;41.828;23.478;2023-04-03T02:01:57;1.30;;;1.00;;
9934;SDS011;5006;41.828;23.478;2023-04-03T02:03:04;1.20;;;0.90;;
9934;SDS011;5006;41.828;23.478;2023-04-03T02:04:09;2.03;;;1.20;;
9934;SDS011;5006;41.828;23.478;2023-04-03T02:05:15;1.20;;;1.00;;
9934;SDS011;5006;41.828;23.478;2023-04-03T02:06:21;1.20;;;1.10;;
9934;SDS011;5006;41.828;23.478;2023-04-03T02:07:26;1.20;;;0.95;;
9934;SDS011;5006;41.828;23.478;2023-04-03T02:08:31;2.15;;;1.10;;
9934;SDS011;5006;41.828;23.478;2023-04-03T02:09:37;2.42;;;0.82;;
9934;SDS011;5006;41.828;23.478;2023-04-03T02:10:41;1.75;;;1.00;;
9934;SDS011;5006;41.828;23.478;2023-04-03T02:11:47;1.90;;;1.20;;
9934;SDS011;5006;41.828;23.478;2023-04-03T02:12:52;1.10;;;1.00;;
9934;SDS011;5006;41.828;23.478;2023-04-03T02:13:57;1.58;;;1.23;;
9934;SDS011;5006;41.828;23.478;2023-04-03T02:15:02;1.50;;;1.27;;
9934;SDS011;5006;41.828;23.478;2023-04-03T02:16:09;1.73;;;1.10;;
9934;SDS011;5006;41.828;23.478;2023-04-03T02:17:15;1.73;;;1.10;;
9934;SDS011;5006;41.828;23.478;2023-04-03T02:18:22;1.92;;;1.20;;
9934;SDS011;5006;41.828;23.478;2023-04-03T02:19:28;1.10;;;1.00;;
9934;SDS011;5006;41.828;23.478;2023-04-03T02:20:32;1.75;;;0.90;;
9934;SDS011;5006;41.828;23.478;2023-04-03T02:21:38;1.25;;;1.13;;
9934;SDS011;5006;41.828;23.478;2023-04-03T02:22:42;1.33;;;1.10;;
9934;SDS011;5006;41.828;23.478;2023-04-03T02:23:48;2.17;;;1.23;;
9934;SDS011;5006;41.828;23.478;2023-04-03T02:24:53;2.03;;;1.30;;
9934;SDS011;5006;41.828;23.478;2023-04-03T02:26:03;1.20;;;1.00;;
9934;SDS011;5006;41.828;23.478;2023-04-03T02:27:09;2.13;;;1.30;;
9934;SDS011;5006;41.828;23.478;2023-04-03T02:28:15;2.28;;;1.40;;
9934;SDS011;5006;41.828;23.478;2023-04-03T02:29:20;1.33;;;1.02;;
9934;SDS011;5006;41.828;23.478;2023-04-03T02:30:26;1.30;;;1.10;;
9934;SDS011;5006;41.828;23.478;2023-04-03T02:31:30;1.77;;;1.20;;
9934;SDS011;5006;41.828;23.478;2023-04-03T02:32:38;1.80;;;1.20;;
9934;SDS011;5006;41.828;23.478;2023-04-03T02:33:46;2.13;;;1.40;;
9934;SDS011;5006;41.828;23.478;2023-04-03T02:34:53;1.92;;;1.10;;
9934;SDS011;5006;41.828;23.478;2023-04-03T02:35:57;1.33;;;1.20;;
9934;SDS011;5006;41.828;23.478;2023-04-03T02:37:03;1.00;;;1.00;;
9934;SDS011;5006;41.828;23.478;2023-04-03T02:38:08;1.20;;;1.10;;
9934;SDS011;5006;41.828;23.478;2023-04-03T02:39:14;1.17;;;1.00;;
9934;SDS011;5006;41.828;23.478;2023-04-03T02:40:20;2.83;;;1.20;;
9934;SDS011;5006;41.828;23.478;2023-04-03T02:41:25;1.35;;;1.10;;
9934;SDS011;5006;41.828;23.478;2023-04-03T02:42:37;1.13;;;1.00;;
9934;SDS011;5006;41.828;23.478;2023-04-03T02:43:43;1.35;;;1.20;;
9934;SDS011;5006;41.828;23.478;2023-04-03T02:44:48;1.25;;;1.15;;
9934;SDS011;5006;41.828;23.478;2023-04-03T02:45:54;1.80;;;1.23;;
9934;SDS011;5006;41.828;23.478;2023-04-03T02:46:59;1.52;;;1.33;;
9934;SDS011;5006;41.828;23.478;2023-04-03T02:48:05;3.17;;;2.38;;
9934;SDS011;5006;41.828;23.478;2023-04-03T02:49:11;6.22;;;4.38;;
9934;SDS011;5006;41.828;23.478;2023-04-03T02:50:17;6.95;;;4.68;;
9934;SDS011;5006;41.828;23.478;2023-04-03T02:51:21;3.90;;;2.80;;
9934;SDS011;5006;41.828;23.478;2023-04-03T02:52:28;3.05;;;2.17;;
9934;SDS011;5006;41.828;23.478;2023-04-03T02:53:35;1.70;;;1.60;;
9934;SDS011;5006;41.828;23.478;2023-04-03T02:54:48;4.43;;;2.42;;
9934;SDS011;5006;41.828;23.478;2023-04-03T02:55:54;3.55;;;1.73;;
9934;SDS011;5006;41.828;23.478;2023-04-03T02:56:59;1.77;;;1.30;;
9934;SDS011;5006;41.828;23.478;2023-04-03T02:58:05;2.20;;;1.73;;
9934;SDS011;5006;41.828;23.478;2023-04-03T02:59:10;1.77;;;1.50;;
9934;SDS011;5006;41.828;23.478;2023-04-03T03:00:17;1.92;;;1.30;;
9934;SDS011;5006;41.828;23.478;2023-04-03T03:01:23;1.70;;;1.40;;
9934;SDS011;5006;41.828;23.478;2023-04-03T03:02:31;2.20;;;1.52;;
9934;SDS011;5006;41.828;23.478;2023-04-03T03:03:35;3.10;;;1.55;;
9934;SDS011;5006;41.828;23.478;2023-04-03T03:04:42;3.85;;;2.70;;
9934;SDS011;5006;41.828;23.478;2023-04-03T03:05:47;4.10;;;3.25;;
9934;SDS011;5006;41.828;23.478;2023-04-03T03:06:53;4.88;;;3.20;;
9934;SDS011;5006;41.828;23.478;2023-04-03T03:07:58;3.88;;;2.50;;
9934;SDS011;5006;41.828;23.478;2023-04-03T03:09:04;2.90;;;2.05;;
9934;SDS011;5006;41.828;23.478;2023-04-03T03:10:10;2.58;;;2.13;;
9934;SDS011;5006;41.828;23.478;2023-04-03T03:11:15;1.92;;;1.70;;
9934;SDS011;5006;41.828;23.478;2023-04-03T03:12:20;3.60;;;2.40;;
9934;SDS011;5006;41.828;23.478;2023-04-03T03:13:27;2.38;;;2.17;;
9934;SDS011;5006;41.828;23.478;2023-04-03T03:14:32;3.95;;;2.17;;
9934;SDS011;5006;41.828;23.478;2023-04-03T03:15:38;3.83;;;2.60;;
9934;SDS011;5006;41.828;23.478;2023-04-03T03:16:43;4.72;;;3.83;;
9934;SDS011;5006;41.828;23.478;2023-04-03T03:17:49;7.35;;;5.20;;
9934;SDS011;5006;41.828;23.478;2023-04-03T03:18:53;5.95;;;4.75;;
9934;SDS011;5006;41.828;23.478;2023-04-03T03:20:00;6.35;;;5.13;;
9934;SDS011;5006;41.828;23.478;2023-04-03T03:21:06;7.53;;;5.45;;
9934;SDS011;5006;41.828;23.478;2023-04-03T03:22:13;6.13;;;4.50;;
9934;SDS011;5006;41.828;23.478;2023-04-03T03:23:19;6.82;;;4.40;;
9934;SDS011;5006;41.828;23.478;2023-04-03T03:24:24;4.15;;;3.65;;
9934;SDS011;5006;41.828;23.478;2023-04-03T03:25:29;3.78;;;3.28;;
9934;SDS011;5006;41.828;23.478;2023-04-03T03:26:34;4.88;;;3.53;;
9934;SDS011;5006;41.828;23.478;2023-04-03T03:27:40;4.10;;;3.15;;
9934;SDS011;5006;41.828;23.478;2023-04-03T03:28:45;3.72;;;2.83;;
9934;SDS011;5006;41.828;23.478;2023-04-03T03:29:50;4.47;;;3.55;;
9934;SDS011;5006;41.828;23.478;2023-04-03T03:30:56;3.90;;;3.40;;
9934;SDS011;5006;41.828;23.478;2023-04-03T03:32:01;4.97;;;3.42;;
9934;SDS011;5006;41.828;23.478;2023-04-03T03:33:07;4.28;;;3.30;;
9934;SDS011;5006;41.828;23.478;2023-04-03T03:34:11;4.80;;;3.53;;
9934;SDS011;5006;41.828;23.478;2023-04-03T03:35:18;3.22;;;2.92;;
9934;SDS011;5006;41.828;23.478;2023-04-03T03:36:25;4.70;;;3.60;;
9934;SDS011;5006;41.828;23.478;2023-04-03T03:37:30;4.80;;;3.38;;
9934;SDS011;5006;41.828;23.478;2023-04-03T03:38:35;5.47;;;4.10;;
9934;SDS011;5006;41.828;23.478;2023-04-03T03:39:41;4.97;;;3.88;;
9934;SDS011;5006;41.828;23.478;2023-04-03T03:40:46;5.95;;;3.97;;
9934;SDS011;5006;41.828;23.478;2023-04-03T03:41:53;5.43;;;4.07;;
9934;SDS011;5006;41.828;23.478;2023-04-03T03:42:58;9.02;;;3.95;;
9934;SDS011;5006;41.828;23.478;2023-04-03T03:44:04;5.80;;;3.67;;
9934;SDS011;5006;41.828;23.478;2023-04-03T03:45:10;6.75;;;4.15;;
9934;SDS011;5006;41.828;23.478;2023-04-03T03:46:16;10.90;;;4.65;;
9934;SDS011;5006;41.828;23.478;2023-04-03T03:47:21;7.50;;;6.00;;
9934;SDS011;5006;41.828;23.478;2023-04-03T03:48:27;9.05;;;6.35;;
9934;SDS011;5006;41.828;23.478;2023-04-03T03:49:32;7.57;;;5.80;;
9934;SDS011;5006;41.828;23.478;2023-04-03T03:50:40;9.85;;;6.88;;
9934;SDS011;5006;41.828;23.478;2023-04-03T03:51:45;7.70;;;6.45;;
9934;SDS011;5006;41.828;23.478;2023-04-03T03:52:50;8.68;;;6.00;;
9934;SDS011;5006;41.828;23.478;2023-04-03T03:53:55;7.25;;;5.50;;
9934;SDS011;5006;41.828;23.478;2023-04-03T03:55:01;8.88;;;4.90;;
9934;SDS011;5006;41.828;23.478;2023-04-03T03:56:06;4.78;;;4.05;;
9934;SDS011;5006;41.828;23.478;2023-04-03T03:57:14;6.30;;;4.30;;
9934;SDS011;5006;41.828;23.478;2023-04-03T03:58:20;7.45;;;4.10;;
9934;SDS011;5006;41.828;23.478;2023-04-03T03:59:25;5.38;;;3.75;;
9934;SDS011;5006;41.828;23.478;2023-04-03T04:00:30;6.38;;;3.90;;
9934;SDS011;5006;41.828;23.478;2023-04-03T04:01:36;5.80;;;4.15;;
9934;SDS011;5006;41.828;23.478;2023-04-03T04:02:42;4.88;;;3.67;;
9934;SDS011;5006;41.828;23.478;2023-04-03T04:03:50;4.03;;;3.40;;
9934;SDS011;5006;41.828;23.478;2023-04-03T04:05:00;6.38;;;4.40;;
9934;SDS011;5006;41.828;23.478;2023-04-03T04:06:06;4.60;;;3.60;;
9934;SDS011;5006;41.828;23.478;2023-04-03T04:07:12;4.68;;;3.55;;
9934;SDS011;5006;41.828;23.478;2023-04-03T04:08:16;6.07;;;3.80;;
9934;SDS011;5006;41.828;23.478;2023-04-03T04:09:23;5.00;;;3.60;;
9934;SDS011;5006;41.828;23.478;2023-04-03T04:10:28;4.30;;;3.10;;
9934;SDS011;5006;41.828;23.478;2023-04-03T04:11:34;4.38;;;2.65;;
9934;SDS011;5006;41.828;23.478;2023-04-03T04:12:40;3.38;;;2.80;;
9934;SDS011;5006;41.828;23.478;2023-04-03T04:13:46;4.40;;;3.13;;
9934;SDS011;5006;41.828;23.478;2023-04-03T04:14:53;3.97;;;3.45;;
9934;SDS011;5006;41.828;23.478;2023-04-03T04:15:59;4.93;;;3.38;;
9934;SDS011;5006;41.828;23.478;2023-04-03T04:17:04;4.32;;;3.30;;
9934;SDS011;5006;41.828;23.478;2023-04-03T04:18:10;3.72;;;2.83;;
9934;SDS011;5006;41.828;23.478;2023-04-03T04:19:15;3.53;;;2.63;;
9934;SDS011;5006;41.828;23.478;2023-04-03T04:20:22;3.45;;;2.83;;
9934;SDS011;5006;41.828;23.478;2023-04-03T04:21:28;5.72;;;3.33;;
9934;SDS011;5006;41.828;23.478;2023-04-03T04:22:34;3.42;;;2.95;;
9934;SDS011;5006;41.828;23.478;2023-04-03T04:23:39;3.67;;;2.90;;
9934;SDS011;5006;41.828;23.478;2023-04-03T04:24:44;4.05;;;2.90;;
9934;SDS011;5006;41.828;23.478;2023-04-03T04:25:49;3.95;;;2.70;;
9934;SDS011;5006;41.828;23.478;2023-04-03T04:26:55;3.85;;;2.40;;
9934;SDS011;5006;41.828;23.478;2023-04-03T04:28:00;2.60;;;2.20;;
9934;SDS011;5006;41.828;23.478;2023-04-03T04:29:08;3.63;;;2.60;;
9934;SDS011;5006;41.828;23.478;2023-04-03T04:30:14;3.70;;;2.53;;
9934;SDS011;5006;41.828;23.478;2023-04-03T04:31:21;3.38;;;2.40;;
9934;SDS011;5006;41.828;23.478;2023-04-03T04:32:27;8.25;;;2.92;;
9934;SDS011;5006;41.828;23.478;2023-04-03T04:33:32;4.18;;;2.20;;
9934;SDS011;5006;41.828;23.478;2023-04-03T04:34:40;2.40;;;1.90;;
9934;SDS011;5006;41.828;23.478;2023-04-03T04:35:46;3.05;;;2.20;;
9934;SDS011;5006;41.828;23.478;2023-04-03T04:36:55;2.33;;;2.13;;
9934;SDS011;5006;41.828;23.478;2023-04-03T04:38:02;2.95;;;2.50;;
9934;SDS011;5006;41.828;23.478;2023-04-03T04:39:07;5.32;;;2.80;;
9934;SDS011;5006;41.828;23.478;2023-04-03T04:40:13;4.05;;;3.08;;
9934;SDS011;5006;41.828;23.478;2023-04-03T04:41:19;3.58;;;2.63;;
9934;SDS011;5006;41.828;23.478;2023-04-03T04:42:27;3.78;;;3.00;;
9934;SDS011;5006;41.828;23.478;2023-04-03T04:43:31;3.25;;;2.90;;
9934;SDS011;5006;41.828;23.478;2023-04-03T04:44:37;4.78;;;2.75;;
9934;SDS011;5006;41.828;23.478;2023-04-03T04:45:42;3.88;;;2.63;;
9934;SDS011;5006;41.828;23.478;2023-04-03T04:46:48;3.08;;;2.33;;
9934;SDS011;5006;41.828;23.478;2023-04-03T04:47:54;3.33;;;2.25;;
9934;SDS011;5006;41.828;23.478;2023-04-03T04:49:01;3.92;;;2.75;;
9934;SDS011;5006;41.828;23.478;2023-04-03T04:50:07;5.32;;;3.42;;
9934;SDS011;5006;41.828;23.478;2023-04-03T04:51:15;4.25;;;2.75;;
9934;SDS011;5006;41.828;23.478;2023-04-03T04:52:22;2.63;;;2.25;;
9934;SDS011;5006;41.828;23.478;2023-04-03T04:53:27;3.35;;;2.10;;
9934;SDS011;5006;41.828;23.478;2023-04-03T04:54:33;3.00;;;2.03;;
9934;SDS011;5006;41.828;23.478;2023-04-03T04:55:37;3.33;;;2.30;;
9934;SDS011;5006;41.828;23.478;2023-04-03T04:56:43;3.15;;;2.40;;
9934;SDS011;5006;41.828;23.478;2023-04-03T04:57:48;3.22;;;2.30;;
9934;SDS011;5006;41.828;23.478;2023-04-03T04:58:54;6.78;;;5.82;;
9934;SDS011;5006;41.828;23.478;2023-04-03T05:00:00;6.47;;;5.45;;
9934;SDS011;5006;41.828;23.478;2023-04-03T05:01:07;5.28;;;3.80;;
9934;SDS011;5006;41.828;23.478;2023-04-03T05:02:18;4.47;;;2.20;;
9934;SDS011;5006;41.828;23.478;2023-04-03T05:03:24;2.92;;;2.35;;
9934;SDS011;5006;41.828;23.478;2023-04-03T05:04:29;5.22;;;3.75;;
9934;SDS011;5006;41.828;23.478;2023-04-03T05:05:41;8.13;;;5.45;;
9934;SDS011;5006;41.828;23.478;2023-04-03T05:06:46;8.95;;;5.70;;
9934;SDS011;5006;41.828;23.478;2023-04-03T05:07:57;7.47;;;5.10;;
9934;SDS011;5006;41.828;23.478;2023-04-03T05:09:03;5.90;;;4.75;;
9934;SDS011;5006;41.828;23.478;2023-04-03T05:10:09;6.18;;;5.00;;
9934;SDS011;5006;41.828;23.478;2023-04-03T05:11:16;6.75;;;5.70;;
9934;SDS011;5006;41.828;23.478;2023-04-03T05:12:23;6.03;;;4.60;;
9934;SDS011;5006;41.828;23.478;2023-04-03T05:13:33;7.10;;;4.60;;
9934;SDS011;5006;41.828;23.478;2023-04-03T05:14:39;6.35;;;4.30;;
9934;SDS011;5006;41.828;23.478;2023-04-03T05:15:46;4.97;;;3.60;;
9934;SDS011;5006;41.828;23.478;2023-04-03T05:16:52;3.55;;;2.97;;
9934;SDS011;5006;41.828;23.478;2023-04-03T05:18:00;6.00;;;3.70;;
9934;SDS011;5006;41.828;23.478;2023-04-03T05:19:06;5.13;;;3.35;;
9934;SDS011;5006;41.828;23.478;2023-04-03T05:20:11;5.13;;;3.17;;
9934;SDS011;5006;41.828;23.478;2023-04-03T05:21:19;4.05;;;3.38;;
9934;SDS011;5006;41.828;23.478;2023-04-03T05:22:27;3.20;;;2.58;;
9934;SDS011;5006;41.828;23.478;2023-04-03T05:23:38;2.75;;;1.98;;
9934;SDS011;5006;41.828;23.478;2023-04-03T05:24:44;2.55;;;2.35;;
9934;SDS011;5006;41.828;23.478;2023-04-03T05:25:50;3.22;;;2.58;;
9934;SDS011;5006;41.828;23.478;2023-04-03T05:26:56;2.88;;;1.80;;
9934;SDS011;5006;41.828;23.478;2023-04-03T05:28:02;4.97;;;2.80;;
9934;SDS011;5006;41.828;23.478;2023-04-03T05:29:07;27.23;;;22.75;;
9934;SDS011;5006;41.828;23.478;2023-04-03T05:30:13;43.28;;;35.97;;
9934;SDS011;5006;41.828;23.478;2023-04-03T05:31:19;11.85;;;9.20;;
9934;SDS011;5006;41.828;23.478;2023-04-03T05:32:25;7.55;;;3.75;;
9934;SDS011;5006;41.828;23.478;2023-04-03T05:33:43;4.22;;;2.42;;
9934;SDS011;5006;41.828;23.478;2023-04-03T05:34:52;5.03;;;2.40;;
9934;SDS011;5006;41.828;23.478;2023-04-03T05:36:02;2.20;;;2.00;;
9934;SDS011;5006;41.828;23.478;2023-04-03T05:37:08;2.60;;;2.10;;
9934;SDS011;5006;41.828;23.478;2023-04-03T05:38:14;2.33;;;2.10;;
9934;SDS011;5006;41.828;23.478;2023-04-03T05:39:21;3.67;;;2.45;;
9934;SDS011;5006;41.828;23.478;2023-04-03T05:40:28;2.97;;;2.35;;
9934;SDS011;5006;41.828;23.478;2023-04-03T05:41:34;3.92;;;2.33;;
9934;SDS011;5006;41.828;23.478;2023-04-03T05:42:40;2.50;;;2.30;;
9934;SDS011;5006;41.828;23.478;2023-04-03T05:43:45;2.28;;;1.83;;
9934;SDS011;5006;41.828;23.478;2023-04-03T05:44:51;2.90;;;1.75;;
9934;SDS011;5006;41.828;23.478;2023-04-03T05:45:56;3.60;;;2.55;;
9934;SDS011;5006;41.828;23.478;2023-04-03T05:47:04;6.15;;;3.70;;
9934;SDS011;5006;41.828;23.478;2023-04-03T05:48:09;6.10;;;3.05;;
9934;SDS011;5006;41.828;23.478;2023-04-03T05:49:15;4.95;;;3.10;;
9934;SDS011;5006;41.828;23.478;2023-04-03T05:50:21;3.95;;;3.03;;
9934;SDS011;5006;41.828;23.478;2023-04-03T05:51:29;4.15;;;3.45;;
9934;SDS011;5006;41.828;23.478;2023-04-03T05:52:44;4.68;;;3.20;;
9934;SDS011;5006;41.828;23.478;2023-04-03T05:53:58;3.38;;;2.72;;
9934;SDS011;5006;41.828;23.478;2023-04-03T05:55:10;3.70;;;2.80;;
9934;SDS011;5006;41.828;23.478;2023-04-03T05:56:14;4.25;;;2.67;;
9934;SDS011;5006;41.828;23.478;2023-04-03T05:57:20;3.30;;;2.90;;
9934;SDS011;5006;41.828;23.478;2023-04-03T05:58:26;3.97;;;2.92;;
9934;SDS011;5006;41.828;23.478;2023-04-03T05:59:31;3.35;;;2.95;;
9934;SDS011;5006;41.828;23.478;2023-04-03T06:00:57;3.35;;;3.05;;
9934;SDS011;5006;41.828;23.478;2023-04-03T06:02:03;3.75;;;2.95;;
9934;SDS011;5006;41.828;23.478;2023-04-03T06:03:09;5.00;;;2.88;;
9934;SDS011;5006;41.828;23.478;2023-04-03T06:04:13;3.50;;;2.88;;
9934;SDS011;5006;41.828;23.478;2023-04-03T06:05:20;3.63;;;2.90;;
9934;SDS011;5006;41.828;23.478;2023-04-03T06:06:24;6.05;;;2.67;;
9934;SDS011;5006;41.828;23.478;2023-04-03T06:07:30;3.15;;;2.78;;
9934;SDS011;5006;41.828;23.478;2023-04-03T06:08:36;3.47;;;2.85;;
9934;SDS011;5006;41.828;23.478;2023-04-03T06:09:41;3.08;;;2.75;;
9934;SDS011;5006;41.828;23.478;2023-04-03T06:10:47;4.43;;;2.88;;
9934;SDS011;5006;41.828;23.478;2023-04-03T06:11:53;3.00;;;2.70;;
9934;SDS011;5006;41.828;23.478;2023-04-03T06:13:00;3.13;;;2.70;;
9934;SDS011;5006;41.828;23.478;2023-04-03T06:14:06;3.28;;;2.80;;
9934;SDS011;5006;41.828;23.478;2023-04-03T06:15:12;3.35;;;2.90;;
9934;SDS011;5006;41.828;23.478;2023-04-03T06:16:18;3.92;;;2.70;;
9934;SDS011;5006;41.828;23.478;2023-04-03T06:17:24;4.13;;;3.03;;
9934;SDS011;5006;41.828;23.478;2023-04-03T06:18:29;3.83;;;2.75;;
9934;SDS011;5006;41.828;23.478;2023-04-03T06:19:35;5.38;;;3.10;;
9934;SDS011;5006;41.828;23.478;2023-04-03T06:20:40;3.75;;;2.90;;
9934;SDS011;5006;41.828;23.478;2023-04-03T06:21:47;3.42;;;3.00;;
9934;SDS011;5006;41.828;23.478;2023-04-03T06:22:52;2.83;;;2.42;;
9934;SDS011;5006;41.828;23.478;2023-04-03T06:23:57;4.30;;;3.88;;
9934;SDS011;5006;41.828;23.478;2023-04-03T06:25:02;3.25;;;2.95;;
9934;SDS011;5006;41.828;23.478;2023-04-03T06:26:10;6.18;;;3.40;;
9934;SDS011;5006;41.828;23.478;2023-04-03T06:27:15;5.68;;;3.50;;
9934;SDS011;5006;41.828;23.478;2023-04-03T06:28:21;4.40;;;3.70;;
9934;SDS011;5006;41.828;23.478;2023-04-03T06:29:26;5.78;;;3.40;;
9934;SDS011;5006;41.828;23.478;2023-04-03T06:30:31;5.35;;;3.63;;
9934;SDS011;5006;41.828;23.478;2023-04-03T06:31:37;5.70;;;4.28;;
9934;SDS011;5006;41.828;23.478;2023-04-03T06:32:41;10.43;;;7.07;;
9934;SDS011;5006;41.828;23.478;2023-04-03T06:33:48;14.02;;;10.02;;
9934;SDS011;5006;41.828;23.478;2023-04-03T06:34:52;22.33;;;14.90;;
9934;SDS011;5006;41.828;23.478;2023-04-03T06:35:59;27.58;;;16.65;;
9934;SDS011;5006;41.828;23.478;2023-04-03T06:37:05;21.42;;;15.40;;
9934;SDS011;5006;41.828;23.478;2023-04-03T06:38:10;20.05;;;14.75;;
9934;SDS011;5006;41.828;23.478;2023-04-03T06:39:17;15.35;;;12.13;;
9934;SDS011;5006;41.828;23.478;2023-04-03T06:40:25;20.05;;;14.55;;
9934;SDS011;5006;41.828;23.478;2023-04-03T06:41:32;13.35;;;9.55;;
9934;SDS011;5006;41.828;23.478;2023-04-03T06:42:37;15.10;;;12.13;;
9934;SDS011;5006;41.828;23.478;2023-04-03T06:43:47;13.77;;;11.23;;
9934;SDS011;5006;41.828;23.478;2023-04-03T06:44:53;13.40;;;10.05;;
9934;SDS011;5006;41.828;23.478;2023-04-03T06:45:59;17.05;;;11.77;;